CDT,Max TemperatureF,Mean TemperatureF,Min TemperatureF,Max Dew PointF,MeanDew PointF,Min DewpointF,Max Humidity, Mean Humidity, Min Humidity, Max Sea Level PressureIn, Mean Sea Level PressureIn, Min Sea Level PressureIn, Max VisibilityMiles, Mean VisibilityMiles, Min VisibilityMiles, Max Wind SpeedMPH, Mean Wind SpeedMPH, Max Gust SpeedMPH,PrecipitationIn, CloudCover, Events, WindDirDegrees
2013-4-1,59,50,42,39,35,27,76,55,42,30.17,30.08,29.94,10,10,5,14,6,18,0.00,0,,5
2013-4-2,46,44,41,27,24,19,57,47,37,30.32,30.27,30.18,10,10,10,13,9,,0.00,7,,41
2013-4-3,51,44,37,25,21,18,49,38,30,30.31,30.24,30.17,10,10,10,17,10,25,0.00,2,,51
2013-4-4,48,44,39,37,32,23,76,62,40,30.17,30.08,30.02,10,9,3,13,7,17,0.00,8,,52
2013-4-5,66,50,33,37,34,27,76,53,32,30.17,30.12,30.07,10,8,0,8,2,,0.00,1,,308
2013-4-6,75,58,42,41,36,30,70,44,25,30.12,30.03,29.92,10,10,10,15,5,23,0.00,0,,182
2013-4-7,69,63,57,52,46,34,59,52,41,30.04,29.98,29.94,10,10,10,13,7,21,0.00,6,,181
2013-4-8,78,68,57,54,50,45,64,53,41,29.98,29.93,29.87,10,10,9,16,8,29,0.00,5,,175
2013-4-9,80,72,64,61,56,48,68,59,48,30.02,29.95,29.89,10,10,10,14,8,25,0.00,3,,155
2013-4-10,84,75,64,63,59,55,73,56,45,29.95,29.85,29.70,10,10,3,20,10,26,0.37,4,Thunderstorm,169
2013-4-11,66,55,42,57,43,34,77,71,62,29.81,29.74,29.68,10,10,4,15,6,31,2.43,6,Thunderstorm,262
2013-4-12,62,50,39,41,35,28,70,53,39,30.03,29.91,29.81,10,10,10,20,7,28,0.00,0,,251
2013-4-13,66,52,39,39,34,27,65,49,35,30.13,30.05,29.96,10,10,2,14,7,20,0.00,0,,90
2013-4-14,71,60,48,52,44,37,71,53,40,29.95,29.85,29.76,10,10,1,18,7,31,0.00,1,,141
2013-4-15,80,68,55,59,52,46,72,56,42,29.94,29.89,29.84,10,10,10,15,8,24,0.00,2,,162
2013-4-16,86,76,66,64,61,55,73,61,48,30.06,30.01,29.92,10,10,8,13,8,21,0.00,4,,169
2013-4-17,84,76,69,64,62,61,73,60,48,30.09,30.00,29.87,10,10,3,16,6,23,0.00,3,,175
2013-4-18,80,63,46,61,55,36,76,60,44,29.87,29.78,29.64,10,10,2,20,12,33,2.26,4,Thunderstorm,189
2013-4-19,53,48,42,36,28,25,66,50,38,30.14,30.01,29.82,10,10,10,17,12,26,0.01,6,,272
2013-4-20,64,50,37,36,32,28,76,50,30,30.30,30.23,30.14,10,10,3,8,2,,0.00,0,,348
2013-4-21,66,55,44,36,32,28,57,42,30,30.39,30.31,30.23,10,10,10,15,6,22,0.00,0,,61
2013-4-22,73,60,46,46,39,30,62,45,33,30.25,30.16,30.04,10,10,10,13,6,20,0.00,0,,123
2013-4-23,73,64,55,54,50,41,68,59,47,30.08,30.00,29.90,10,10,2,15,8,24,0.00,4,,166
2013-4-24,66,52,39,54,35,30,71,62,44,30.32,30.15,29.89,10,10,7,16,9,24,0.57,6,Thunderstorm,329
2013-4-25,66,50,35,37,34,27,75,53,32,30.40,30.35,30.30,10,10,5,7,2,,0.00,0,,229
2013-4-26,60,54,48,43,40,36,76,64,45,30.45,30.34,30.24,10,10,5,15,5,24,0.72,6,Thunderstorm,78
2013-4-27,62,56,51,55,48,43,82,74,71,30.28,30.07,29.91,10,7,2,13,7,16,2.46,8,Thunderstorm,92
2013-4-28,64,58,50,52,47,43,82,71,56,30.00,29.97,29.94,10,9,2,9,5,,0.01,7,,272
2013-4-29,75,60,46,55,49,39,82,62,47,30.04,29.97,29.89,10,8,0,10,3,,0.00,0,,150
2013-4-30,80,66,53,54,50,45,72,51,34,29.99,29.95,29.91,10,10,9,14,5,,0.00,0,,147